createdAt,value
2023-04-17T00:00:21.710Z,8.45
2023-04-17T00:04:11.053Z,8.44
2023-04-17T00:07:38.892Z,8.44
2023-04-17T00:11:08.556Z,8.43
2023-04-17T00:14:35.920Z,8.42
2023-04-17T00:18:02.860Z,8.41
2023-04-17T00:21:31.936Z,8.39
2023-04-17T00:24:58.813Z,8.36
2023-04-17T00:28:26.414Z,8.34
2023-04-17T00:31:53.268Z,8.34
2023-04-17T00:35:20.481Z,8.34
2023-04-17T00:38:47.541Z,8.31
2023-04-17T00:42:14.416Z,8.29
2023-04-17T00:45:42.502Z,8.28
2023-04-17T00:49:09.792Z,8.27
2023-04-17T00:52:37.081Z,8.25
2023-04-17T00:56:07.052Z,8.22
2023-04-17T00:59:35.461Z,8.20
2023-04-17T01:03:02.924Z,8.20
2023-04-17T01:06:30.250Z,8.19
2023-04-17T01:09:57.110Z,8.16
2023-04-17T01:13:23.957Z,8.14
2023-04-17T01:16:51.074Z,8.13
2023-04-17T01:20:18.281Z,8.11
2023-04-17T01:23:52.208Z,8.09
2023-04-17T01:27:22.618Z,8.04
2023-04-17T01:30:49.728Z,8.01
2023-04-17T01:34:16.735Z,7.96
2023-04-17T01:37:43.628Z,7.93
2023-04-17T01:41:10.890Z,7.87
2023-04-17T01:44:38.969Z,7.80
2023-04-17T01:48:06.591Z,7.74
2023-04-17T01:51:33.679Z,7.67
2023-04-17T01:55:00.696Z,7.63
2023-04-17T01:58:27.571Z,7.56
2023-04-17T02:01:54.993Z,7.51
2023-04-17T02:05:22.156Z,7.47
2023-04-17T02:08:49.045Z,7.44
2023-04-17T02:12:15.956Z,7.39
2023-04-17T02:15:43.439Z,7.36
2023-04-17T02:19:10.663Z,7.33
2023-04-17T02:22:37.700Z,7.31
2023-04-17T02:26:04.923Z,7.28
2023-04-17T02:29:31.873Z,7.26
2023-04-17T02:32:59.418Z,7.25
2023-04-17T02:36:26.412Z,7.26
2023-04-17T02:39:53.520Z,7.26
2023-04-17T02:43:20.487Z,7.25
2023-04-17T02:46:47.728Z,7.21
2023-04-17T02:50:15.949Z,7.21
2023-04-17T02:54:09.138Z,7.20
2023-04-17T02:57:35.986Z,7.18
2023-04-17T03:01:06.635Z,7.18
2023-04-17T03:04:36.393Z,7.16
2023-04-17T03:08:04.133Z,7.15
2023-04-17T03:11:34.568Z,7.14
2023-04-17T03:15:02.414Z,7.15
2023-04-17T03:18:30.316Z,7.15
2023-04-17T03:21:57.771Z,7.15
2023-04-17T03:25:24.760Z,7.13
2023-04-17T03:28:54.499Z,7.10
2023-04-17T03:32:21.713Z,7.08
2023-04-17T03:35:49.772Z,7.06
2023-04-17T03:39:17.071Z,7.04
2023-04-17T03:42:44.534Z,7.04
2023-04-17T03:46:12.115Z,7.01
2023-04-17T03:49:39.506Z,6.99
2023-04-17T03:53:06.625Z,6.99
2023-04-17T03:56:33.541Z,6.99
2023-04-17T04:00:00.919Z,6.99
2023-04-17T04:03:34.974Z,6.98
2023-04-17T04:07:03.722Z,6.99
2023-04-17T04:10:32.515Z,7.01
2023-04-17T04:13:59.760Z,7.03
2023-04-17T04:17:28.186Z,7.04
2023-04-17T04:20:55.486Z,7.05
2023-04-17T04:24:33.995Z,7.04
2023-04-17T04:28:03.181Z,7.01
2023-04-17T04:31:31.433Z,7.00
2023-04-17T04:35:02.171Z,6.99
2023-04-17T04:38:32.447Z,6.98
2023-04-17T04:42:10.009Z,6.97
2023-04-17T04:46:10.508Z,6.96
2023-04-17T04:49:41.116Z,6.96
2023-04-17T04:53:09.080Z,6.95
2023-04-17T04:56:45.119Z,6.93
2023-04-17T05:00:14.444Z,6.94
2023-04-17T05:03:46.618Z,6.95
2023-04-17T05:07:18.847Z,6.96
2023-04-17T05:10:46.574Z,6.96
2023-04-17T05:14:14.238Z,6.97
2023-04-17T05:17:41.772Z,7.02
2023-04-17T05:21:10.098Z,7.06
2023-04-17T05:24:38.588Z,7.11
2023-04-17T05:28:05.942Z,7.14
2023-04-17T05:31:33.056Z,7.15
2023-04-17T05:35:01.659Z,7.19
2023-04-17T05:38:28.931Z,7.24
2023-04-17T05:41:56.561Z,7.28
2023-04-17T05:45:25.580Z,7.29
2023-04-17T05:48:53.104Z,7.31
2023-04-17T05:52:20.968Z,7.37
2023-04-17T05:55:48.714Z,7.39
2023-04-17T05:59:16.298Z,7.40
2023-04-17T06:02:45.041Z,7.40
2023-04-17T06:06:18.062Z,7.39
2023-04-17T06:09:46.318Z,7.40
2023-04-17T06:13:14.062Z,7.40
2023-04-17T06:16:44.421Z,7.38
2023-04-17T06:20:13.197Z,7.39
2023-04-17T06:23:40.147Z,7.40
2023-04-17T06:27:08.270Z,7.43
2023-04-17T06:30:35.706Z,7.42
2023-04-17T06:34:03.095Z,7.44
2023-04-17T06:37:32.693Z,7.39
2023-04-17T06:40:59.748Z,7.37
2023-04-17T06:44:27.203Z,7.39
2023-04-17T06:47:54.866Z,7.46
2023-04-17T06:51:22.354Z,7.57
2023-04-17T06:54:49.330Z,7.57
2023-04-17T06:58:16.318Z,7.56
2023-04-17T07:01:43.263Z,7.51
2023-04-17T07:05:11.994Z,7.44
2023-04-17T07:08:39.086Z,7.45
2023-04-17T07:12:06.326Z,7.50
2023-04-17T07:15:33.751Z,7.50
2023-04-17T07:19:00.845Z,7.48
2023-04-17T07:22:28.415Z,7.56
2023-04-17T07:25:55.461Z,7.64
2023-04-17T07:29:22.395Z,7.62
2023-04-17T07:32:49.704Z,7.64
2023-04-17T07:36:17.192Z,7.67
2023-04-17T07:39:45.059Z,7.66
2023-04-17T07:43:11.868Z,7.63
2023-04-17T07:46:38.920Z,7.68
2023-04-17T07:50:06.615Z,7.69
2023-04-17T07:53:35.960Z,7.71
2023-04-17T07:57:03.567Z,7.76
2023-04-17T08:00:30.531Z,7.82
2023-04-17T08:03:58.344Z,7.86
2023-04-17T08:07:26.051Z,7.93
2023-04-17T08:10:53.365Z,8.08
2023-04-17T08:14:20.510Z,8.16
2023-04-17T08:17:47.705Z,8.22
2023-04-17T08:21:14.921Z,8.32
2023-04-17T08:24:42.607Z,8.48
2023-04-17T08:28:09.601Z,8.57
2023-04-17T08:31:36.960Z,8.53
2023-04-17T08:35:04.123Z,8.52
2023-04-17T08:39:25.673Z,8.66
2023-04-17T08:43:29.663Z,8.97
2023-04-17T08:46:59.360Z,9.07
2023-04-17T08:50:26.345Z,9.18
2023-04-17T08:53:53.308Z,9.21
2023-04-17T08:57:20.485Z,9.31
2023-04-17T09:00:47.878Z,9.41
2023-04-17T09:04:41.856Z,9.49
2023-04-17T09:08:14.427Z,9.52
2023-04-17T09:11:41.309Z,9.55
2023-04-17T09:15:17.967Z,9.61
2023-04-17T09:18:46.424Z,9.70
2023-04-17T09:22:23.949Z,9.90
2023-04-17T09:26:09.072Z,10.20
2023-04-17T09:29:55.734Z,10.41
2023-04-17T09:33:22.395Z,10.39
2023-04-17T09:36:55.002Z,10.46
2023-04-17T09:40:23.502Z,10.46
2023-04-17T09:43:53.714Z,10.46
2023-04-17T09:47:21.080Z,10.52
2023-04-17T09:50:48.814Z,10.72
2023-04-17T09:54:17.486Z,10.77
2023-04-17T09:57:45.399Z,10.70
2023-04-17T10:01:13.977Z,10.61
2023-04-17T10:04:42.644Z,10.64
2023-04-17T10:08:10.414Z,10.76
2023-04-17T10:11:41.917Z,10.83
2023-04-17T10:15:14.544Z,10.81
2023-04-17T10:18:41.723Z,10.82
2023-04-17T10:22:34.182Z,10.85
2023-04-17T10:26:46.040Z,10.85
2023-04-17T10:30:17.702Z,10.90
2023-04-17T10:33:52.792Z,10.99
2023-04-17T10:37:22.779Z,11.06
2023-04-17T10:40:53.240Z,11.31
2023-04-17T10:44:22.045Z,11.50
2023-04-17T10:48:01.000Z,11.68
2023-04-17T10:51:44.679Z,11.82
2023-04-17T10:55:16.206Z,12.08
2023-04-17T10:58:59.454Z,12.23
2023-04-17T11:02:37.367Z,12.23
2023-04-17T11:06:06.388Z,12.28
2023-04-17T11:09:33.251Z,12.24
2023-04-17T11:13:00.128Z,12.17
2023-04-17T11:16:27.188Z,12.14
2023-04-17T11:19:54.636Z,12.13
2023-04-17T11:23:21.743Z,12.05
2023-04-17T11:26:50.030Z,12.00
2023-04-17T11:30:27.258Z,12.07
2023-04-17T11:33:54.103Z,12.15
2023-04-17T11:37:20.911Z,12.17
2023-04-17T11:40:51.257Z,12.24
2023-04-17T11:44:20.226Z,12.32
2023-04-17T11:47:49.693Z,12.37
2023-04-17T11:51:20.519Z,12.51
2023-04-17T11:54:48.304Z,12.43
2023-04-17T11:58:16.089Z,12.30
2023-04-17T12:01:54.159Z,12.08
2023-04-17T12:05:22.091Z,12.03
2023-04-17T12:08:51.197Z,11.92
2023-04-17T12:12:18.202Z,11.78
2023-04-17T12:15:46.016Z,11.73
2023-04-17T12:19:16.773Z,11.79
2023-04-17T12:22:44.435Z,11.82
2023-04-17T12:26:11.931Z,11.95
2023-04-17T12:29:44.467Z,12.20
2023-04-17T12:33:12.687Z,12.29
2023-04-17T12:36:39.771Z,12.26
2023-04-17T12:40:10.861Z,12.20
2023-04-17T12:43:38.454Z,12.16
2023-04-17T12:47:05.644Z,12.07
2023-04-17T12:50:32.797Z,12.04
2023-04-17T12:54:00.018Z,12.08
2023-04-17T12:57:27.512Z,12.15
2023-04-17T13:00:54.616Z,12.13
2023-04-17T13:04:21.800Z,12.13
2023-04-17T13:07:48.911Z,12.24
2023-04-17T13:11:16.339Z,12.41
2023-04-17T13:14:44.286Z,12.65
2023-04-17T13:18:11.190Z,12.77
2023-04-17T13:21:38.112Z,12.87
2023-04-17T13:25:06.096Z,12.90
2023-04-17T13:28:33.355Z,13.08
2023-04-17T13:32:01.270Z,13.39
2023-04-17T13:35:28.198Z,13.51
2023-04-17T13:38:55.194Z,13.44
2023-04-17T13:42:22.764Z,13.32
2023-04-17T13:45:52.701Z,13.15
2023-04-17T13:49:21.548Z,12.91
2023-04-17T13:52:48.514Z,12.99
2023-04-17T13:56:15.840Z,13.11
2023-04-17T13:59:42.934Z,13.28
2023-04-17T14:03:09.886Z,13.26
2023-04-17T14:06:37.061Z,13.00
2023-04-17T14:10:04.214Z,12.80
2023-04-17T14:13:31.328Z,12.69
2023-04-17T14:16:58.525Z,12.57
2023-04-17T14:20:25.519Z,12.44
2023-04-17T14:23:52.483Z,12.49
2023-04-17T14:27:19.424Z,12.60
2023-04-17T14:30:46.721Z,12.64
2023-04-17T14:34:15.305Z,12.66
2023-04-17T14:37:43.930Z,12.66
2023-04-17T14:41:14.003Z,12.64
2023-04-17T14:44:43.773Z,12.60
2023-04-17T14:48:09.449Z,12.58
2023-04-17T14:51:36.962Z,12.52
2023-04-17T14:55:07.206Z,12.56
2023-04-17T14:58:34.353Z,12.61
2023-04-17T15:02:01.777Z,12.58
2023-04-17T15:05:29.033Z,12.57
2023-04-17T15:08:56.430Z,12.55
2023-04-17T15:12:23.637Z,12.48
2023-04-17T15:15:50.808Z,12.43
2023-04-17T15:19:18.007Z,12.32
2023-04-17T15:22:45.731Z,12.24
2023-04-17T15:26:13.304Z,12.21
2023-04-17T15:29:41.209Z,12.20
2023-04-17T15:33:09.999Z,12.15
2023-04-17T15:36:37.475Z,12.12
2023-04-17T15:40:04.508Z,12.08
2023-04-17T15:43:31.652Z,12.02
2023-04-17T15:46:58.693Z,11.99
2023-04-17T15:50:25.726Z,11.93
2023-04-17T15:53:52.863Z,11.91
2023-04-17T15:57:19.791Z,11.89
2023-04-17T16:00:46.908Z,11.80
2023-04-17T16:04:13.911Z,11.78
2023-04-17T16:07:40.791Z,11.79
2023-04-17T16:11:08.387Z,11.78
2023-04-17T16:14:35.307Z,11.73
2023-04-17T16:18:02.335Z,11.67
2023-04-17T16:21:29.552Z,11.53
2023-04-17T16:24:56.344Z,11.41
2023-04-17T16:28:24.481Z,11.33
2023-04-17T16:31:51.556Z,11.28
2023-04-17T16:35:18.775Z,11.25
2023-04-17T16:38:46.450Z,11.23
2023-04-17T16:42:14.596Z,11.22
2023-04-17T16:45:42.174Z,11.19
2023-04-17T16:49:12.802Z,11.16
2023-04-17T16:52:41.146Z,11.10
2023-04-17T16:56:11.144Z,11.01
2023-04-17T16:59:39.365Z,10.88
2023-04-17T17:03:08.126Z,10.77
2023-04-17T17:06:36.333Z,10.68
2023-04-17T17:10:05.851Z,10.60
2023-04-17T17:13:34.279Z,10.53
2023-04-17T17:17:02.220Z,10.44
2023-04-17T17:20:32.216Z,10.36
2023-04-17T17:24:01.538Z,10.28
2023-04-17T17:27:28.986Z,10.20
2023-04-17T17:31:02.985Z,10.11
2023-04-17T17:34:33.104Z,10.00
2023-04-17T17:38:00.954Z,9.91
2023-04-17T17:41:30.486Z,9.81
2023-04-17T17:45:01.154Z,9.71
2023-04-17T17:48:35.466Z,9.61
2023-04-17T17:52:05.540Z,9.54
2023-04-17T17:55:37.984Z,9.45
2023-04-17T17:59:07.882Z,9.38
2023-04-17T18:02:36.538Z,9.32
2023-04-17T18:06:04.592Z,9.25
2023-04-17T18:09:32.965Z,9.17
2023-04-17T18:13:00.749Z,9.10
2023-04-17T18:16:31.775Z,9.04
2023-04-17T18:20:00.180Z,8.97
2023-04-17T18:23:28.515Z,8.92
2023-04-17T18:26:55.921Z,8.85
2023-04-17T18:30:23.421Z,8.80
2023-04-17T18:33:51.029Z,8.74
2023-04-17T18:37:18.334Z,8.68
2023-04-17T18:40:45.767Z,8.63
2023-04-17T18:44:13.696Z,8.58
2023-04-17T18:47:42.555Z,8.57
2023-04-17T18:51:14.559Z,8.55
2023-04-17T18:54:42.408Z,8.53
2023-04-17T18:58:09.614Z,8.52
2023-04-17T19:01:36.821Z,8.51
2023-04-17T19:05:04.553Z,8.48
2023-04-17T19:08:32.255Z,8.42
2023-04-17T19:12:00.589Z,8.37
2023-04-17T19:15:28.446Z,8.32
2023-04-17T19:18:56.711Z,8.28
2023-04-17T19:22:24.632Z,8.24
2023-04-17T19:25:55.206Z,8.18
2023-04-17T19:29:23.851Z,8.13
2023-04-17T19:32:52.633Z,8.08
2023-04-17T19:36:20.333Z,8.02
2023-04-17T19:39:48.546Z,7.98
2023-04-17T19:43:15.765Z,7.95
2023-04-17T19:46:43.892Z,7.91
2023-04-17T19:50:12.362Z,7.87
2023-04-17T19:53:40.914Z,7.83
2023-04-17T19:57:07.932Z,7.84
2023-04-17T20:00:34.990Z,7.88
2023-04-17T20:04:02.142Z,7.91
2023-04-17T20:07:29.344Z,7.94
2023-04-17T20:10:56.475Z,7.96
2023-04-17T20:14:25.022Z,7.98
2023-04-17T20:17:52.288Z,7.99
2023-04-17T20:21:19.759Z,7.99
2023-04-17T20:24:50.659Z,7.98
2023-04-17T20:28:17.582Z,7.96
2023-04-17T20:31:44.305Z,7.92
2023-04-17T20:35:12.564Z,7.88
2023-04-17T20:38:39.548Z,7.86
2023-04-17T20:42:06.617Z,7.84
2023-04-17T20:45:33.620Z,7.83
2023-04-17T20:49:00.939Z,7.81
2023-04-17T20:52:28.261Z,7.79
2023-04-17T20:55:57.832Z,7.78
2023-04-17T20:59:24.964Z,7.77
2023-04-17T21:02:52.009Z,7.76
2023-04-17T21:06:21.112Z,7.73
2023-04-17T21:09:48.451Z,7.71
2023-04-17T21:13:15.407Z,7.68
2023-04-17T21:16:44.495Z,7.64
2023-04-17T21:20:13.145Z,7.61
2023-04-17T21:23:41.104Z,7.57
2023-04-17T21:27:08.340Z,7.53
2023-04-17T21:30:36.903Z,7.49
2023-04-17T21:34:04.290Z,7.46
2023-04-17T21:37:31.358Z,7.45
2023-04-17T21:40:58.793Z,7.43
2023-04-17T21:44:25.772Z,7.43
2023-04-17T21:47:53.790Z,7.44
2023-04-17T21:51:23.523Z,7.43
2023-04-17T21:54:50.911Z,7.43
2023-04-17T21:58:18.492Z,7.41
2023-04-17T22:01:45.667Z,7.40
2023-04-17T22:05:12.640Z,7.39
2023-04-17T22:08:39.464Z,7.37
2023-04-17T22:12:14.407Z,7.36
2023-04-17T22:15:41.659Z,7.35
2023-04-17T22:19:08.782Z,7.35
2023-04-17T22:22:52.766Z,7.36
2023-04-17T22:26:37.224Z,7.35
2023-04-17T22:30:56.186Z,7.35
2023-04-17T22:34:59.426Z,7.32
2023-04-17T22:38:43.712Z,7.28
2023-04-17T22:42:10.652Z,7.25
2023-04-17T22:45:56.420Z,7.21
2023-04-17T22:49:24.169Z,7.18
2023-04-17T22:52:50.960Z,7.15
2023-04-17T22:56:17.601Z,7.12
2023-04-17T22:59:44.220Z,7.09
2023-04-17T23:03:11.256Z,7.07
2023-04-17T23:06:38.218Z,7.06
2023-04-17T23:10:24.045Z,7.04
2023-04-17T23:13:50.869Z,7.03
2023-04-17T23:17:17.920Z,7.02
2023-04-17T23:20:44.790Z,7.01
2023-04-17T23:24:12.303Z,7.00
2023-04-17T23:27:39.606Z,6.99
2023-04-17T23:31:08.358Z,6.98
2023-04-17T23:34:35.469Z,6.98
2023-04-17T23:38:02.285Z,6.96
2023-04-17T23:41:29.814Z,6.95
2023-04-17T23:44:56.933Z,6.95
2023-04-17T23:48:23.848Z,6.94
2023-04-17T23:51:50.655Z,6.92
2023-04-17T23:55:17.654Z,6.90
2023-04-17T23:58:44.499Z,6.87
